Time;durP1;ratioP1;P1;durP2;ratioP2;P2;SDS_P1;SDS_P2;PMS_P1;PMS_P2;Temp;Humidity;BMP_temperature;BMP_pressure;BME280_temperature;BME280_humidity;BME280_pressure;Samples;Min_cycle;Max_cycle;Signal;HPM_P1;HPM_P2
2023/12/25 00:00:06;;;;;;;;;;;7.90;99.90;;;7.07;100.00;97536.47;5023349;28;1394;-70
2023/12/25 00:02:33;;;;;;;;;;;7.80;99.90;;;7.02;100.00;97535.75;5018055;28;1639;-70
2023/12/25 00:04:59;;;;;;;;;;;7.80;99.90;;;7.11;100.00;97538.06;5019127;28;1371;-70
2023/12/25 00:07:26;;;;;;;;;;;7.70;99.90;;;7.04;100.00;97510.75;5018032;28;2015;-69
2023/12/25 00:10:11;;;;;;;;;;;7.70;99.90;;;7.04;100.00;97501.28;5017024;28;1774;-69
2023/12/25 00:12:38;;;;;;;;;;;7.70;99.90;;;6.95;100.00;97516.19;5016621;28;1439;-69
2023/12/25 00:15:08;;;;;;;;;;;7.70;99.90;;;6.91;100.00;97552.41;5034138;28;1640;-70
2023/12/25 00:17:35;;;;;;;;;;;7.70;99.90;;;6.93;100.00;97530.88;5030713;28;1928;-70
2023/12/25 00:20:03;;;;;;;;;;;7.70;99.90;;;6.91;100.00;97538.63;5016971;28;3217;-70
2023/12/25 00:22:30;;;;;;;;;;;7.60;99.90;;;6.96;100.00;97529.06;5020913;28;1383;-70
2023/12/25 00:24:57;;;;;;;;;;;7.60;99.90;;;6.95;100.00;97555.72;5017915;28;1447;-69
2023/12/25 00:27:24;;;;;;;;;;;7.60;99.90;;;6.99;100.00;97515.22;5017122;28;2007;-70
2023/12/25 00:29:50;;;;;;;;;;;7.60;99.90;;;6.96;100.00;97492.09;5016559;28;1455;-70
2023/12/25 00:32:17;;;;;;;;;;;7.70;99.90;;;7.09;100.00;97532.09;5018805;28;1570;-69
2023/12/25 00:34:44;;;;;;;;;;;7.60;99.90;;;7.11;100.00;97536.31;5016875;28;2104;-70
2023/12/25 00:37:11;;;;;;;;;;;7.70;99.90;;;7.20;100.00;97542.97;5019309;28;1372;-70
2023/12/25 00:39:38;;;;;;;;;;;7.70;99.90;;;7.22;100.00;97537.75;5017697;28;1491;-70
2023/12/25 00:42:05;;;;;;;;;;;7.80;99.90;;;7.19;100.00;97519.78;5017306;28;1485;-70
2023/12/25 00:44:32;;;;;;;;;;;7.80;99.90;;;7.16;100.00;97520.75;5014875;28;1392;-69
2023/12/25 00:46:59;;;;;;;;;;;7.80;99.90;;;7.16;100.00;97509.53;5019545;28;2171;-70
2023/12/25 00:49:26;;;;;;;;;;;7.80;99.90;;;7.13;100.00;97520.81;5014861;28;1995;-70
2023/12/25 00:51:53;;;;;;;;;;;7.80;99.90;;;7.14;100.00;97535.41;5015098;28;1469;-70
2023/12/25 00:54:20;;;;;;;;;;;7.80;99.90;;;7.06;100.00;97524.47;5018087;28;1512;-69
2023/12/25 00:56:47;;;;;;;;;;;7.70;99.90;;;7.08;100.00;97513.19;5015760;28;5116;-69
2023/12/25 00:59:14;;;;;;;;;;;7.70;99.90;;;7.10;100.00;97513.16;5019198;28;1535;-70
2023/12/25 01:01:41;;;;;;;;;;;7.70;99.90;;;7.11;100.00;97527.75;5016658;28;3302;-70
2023/12/25 01:04:08;;;;;;;;;;;7.80;99.90;;;7.10;100.00;97528.66;5018260;28;1992;-69
2023/12/25 01:06:35;;;;;;;;;;;7.70;99.90;;;7.16;100.00;97532.78;5016962;28;1496;-70
2023/12/25 01:09:01;;;;;;;;;;;7.70;99.90;;;7.03;100.00;97509.91;5020529;28;1902;-69
2023/12/25 01:11:28;;;;;;;;;;;7.70;99.90;;;7.05;100.00;97521.03;5020025;28;1429;-69
2023/12/25 01:13:55;;;;;;;;;;;7.70;99.90;;;7.04;100.00;97514.19;5016190;28;1717;-69
2023/12/25 01:16:23;;;;;;;;;;;7.70;99.90;;;7.03;100.00;97519.41;5018835;28;2259;-69
2023/12/25 01:18:50;;;;;;;;;;;7.70;99.90;;;7.05;100.00;97523.63;5032491;28;1376;-69
2023/12/25 01:21:17;;;;;;;;;;;7.70;99.90;;;7.08;100.00;97500.28;5018079;28;1449;-70
2023/12/25 01:23:44;;;;;;;;;;;7.60;99.90;;;7.08;100.00;97517.53;5016661;28;1298;-70
2023/12/25 01:26:11;;;;;;;;;;;7.70;99.90;;;7.03;100.00;97502.19;5015619;28;1366;-70
2023/12/25 01:28:38;;;;;;;;;;;7.70;99.90;;;7.04;100.00;97457.41;5017090;28;1902;-70
2023/12/25 01:31:06;;;;;;;;;;;7.70;99.90;;;7.11;100.00;97510.53;5017911;28;1900;-69
2023/12/25 01:33:32;;;;;;;;;;;7.70;99.90;;;7.10;100.00;97528.66;5018051;28;1449;-70
2023/12/25 01:35:59;;;;;;;;;;;7.70;99.90;;;7.03;100.00;97540.06;5014110;28;1357;-69
2023/12/25 01:38:26;;;;;;;;;;;7.70;99.90;;;7.08;100.00;97544.16;5018750;28;1313;-70
2023/12/25 01:40:53;;;;;;;;;;;7.70;99.90;;;7.08;100.00;97520.94;5016930;28;1326;-69
2023/12/25 01:43:28;;;;;;;;;;;7.70;99.90;;;7.00;100.00;97515.19;5019811;28;3129;-70
2023/12/25 01:45:55;;;;;;;;;;;7.70;99.90;;;7.01;100.00;97519.44;5015352;28;1410;-70
2023/12/25 01:48:23;;;;;;;;;;;7.70;99.90;;;7.02;100.00;97528.84;5017507;28;1930;-70
2023/12/25 01:50:52;;;;;;;;;;;7.70;99.90;;;7.09;100.00;97555.34;5017810;28;1164;-69
2023/12/25 01:53:19;;;;;;;;;;;7.60;99.90;;;7.07;100.00;97570.03;5015544;28;1411;-69
2023/12/25 01:55:46;;;;;;;;;;;7.60;99.90;;;7.03;100.00;97546.06;5036203;28;1336;-70
2023/12/25 01:58:13;;;;;;;;;;;7.70;99.90;;;7.04;100.00;97521.09;5018908;28;5344;-70
2023/12/25 02:00:39;;;;;;;;;;;7.60;99.90;;;7.02;100.00;97562.41;5017106;28;1441;-69
2023/12/25 02:03:06;;;;;;;;;;;7.60;99.90;;;7.05;100.00;97548.59;5017728;28;1301;-69
2023/12/25 02:05:33;;;;;;;;;;;7.60;99.90;;;7.09;100.00;97561.38;5030850;28;1622;-70
2023/12/25 02:08:01;;;;;;;;;;;7.60;99.90;;;7.00;100.00;97538.41;5019188;28;1902;-69
2023/12/25 02:10:29;;;;;;;;;;;7.70;99.90;;;7.05;100.00;97564.91;5019163;28;1269;-71
2023/12/25 02:12:57;;;;;;;;;;;7.60;99.90;;;7.02;100.00;97536.59;5052019;28;2120;-70
2023/12/25 02:15:24;;;;;;;;;;;7.60;99.90;;;6.96;100.00;97549.69;5018544;28;1559;-70
2023/12/25 02:17:51;;;;;;;;;;;7.60;99.90;;;6.88;100.00;97537.00;5020799;28;1425;-69
2023/12/25 02:20:19;;;;;;;;;;;7.60;99.90;;;6.86;100.00;97522.44;5021712;28;1927;-69
2023/12/25 02:22:49;;;;;;;;;;;7.60;99.90;;;6.84;100.00;97548.31;5021187;28;1592;-70
2023/12/25 02:25:36;;;;;;;;;;;7.50;99.90;;;6.87;100.00;97527.59;5017205;28;3213;-70
2023/12/25 02:28:04;;;;;;;;;;;7.50;99.90;;;6.83;100.00;97525.97;5049419;28;2017;-69
2023/12/25 02:30:30;;;;;;;;;;;7.50;99.90;;;6.83;100.00;97515.66;5021448;28;1409;-70
2023/12/25 02:33:04;;;;;;;;;;;7.50;99.90;;;6.78;100.00;97543.31;5022661;28;1734;-70
2023/12/25 02:35:31;;;;;;;;;;;7.50;99.90;;;6.80;100.00;97520.06;5036938;28;1428;-69
2023/12/25 02:37:58;;;;;;;;;;;7.40;99.90;;;6.78;100.00;97547.63;5021440;28;1380;-70
2023/12/25 02:40:25;;;;;;;;;;;7.40;99.90;;;6.77;100.00;97520.97;5020739;28;2295;-69
2023/12/25 02:42:52;;;;;;;;;;;7.40;99.90;;;6.77;100.00;97539.03;5018001;28;1433;-69
2023/12/25 02:45:19;;;;;;;;;;;7.40;99.90;;;6.77;100.00;97520.13;5019930;28;1379;-70
2023/12/25 02:47:46;;;;;;;;;;;7.40;99.90;;;6.78;100.00;97509.78;5019590;28;1595;-69
2023/12/25 02:50:13;;;;;;;;;;;7.40;99.90;;;6.74;100.00;97500.44;5017386;28;1934;-69
2023/12/25 02:52:40;;;;;;;;;;;7.50;99.90;;;6.78;100.00;97517.53;5018648;28;1409;-69
2023/12/25 02:55:07;;;;;;;;;;;7.50;99.90;;;6.84;100.00;97514.78;5017565;28;2126;-70
2023/12/25 02:57:33;;;;;;;;;;;7.50;99.90;;;6.82;100.00;97502.78;5017464;28;4997;-69
2023/12/25 03:00:02;;;;;;;;;;;7.40;99.90;;;6.90;100.00;97547.28;5016861;28;1403;-69
2023/12/25 03:02:29;;;;;;;;;;;7.40;99.90;;;6.82;100.00;97470.13;5017375;28;2162;-71
2023/12/25 03:04:56;;;;;;;;;;;7.50;99.90;;;6.86;100.00;97501.81;5017938;28;1433;-69
2023/12/25 03:07:22;;;;;;;;;;;7.50;99.90;;;6.87;100.00;97525.00;5022533;28;3300;-70
2023/12/25 03:09:49;;;;;;;;;;;7.50;99.90;;;6.84;100.00;97519.94;5020793;28;1898;-69
2023/12/25 03:12:16;;;;;;;;;;;7.50;99.90;;;6.94;100.00;97511.94;5019278;28;1389;-70
2023/12/25 03:14:43;;;;;;;;;;;7.50;99.90;;;6.81;100.00;97524.31;5015757;28;1918;-70
2023/12/25 03:17:10;;;;;;;;;;;7.50;99.90;;;6.81;100.00;97517.44;5017577;28;1370;-69
2023/12/25 03:19:37;;;;;;;;;;;7.40;99.90;;;6.79;100.00;97470.19;5019889;28;1407;-69
2023/12/25 03:22:04;;;;;;;;;;;7.50;99.90;;;6.82;100.00;97518.25;5019612;28;2311;-69
2023/12/25 03:24:32;;;;;;;;;;;7.50;99.90;;;6.81;100.00;97516.59;5021677;28;1322;-70
2023/12/25 03:26:58;;;;;;;;;;;7.40;99.90;;;6.75;100.00;97512.47;5022519;28;1356;-69
2023/12/25 03:29:25;;;;;;;;;;;7.50;99.90;;;6.84;100.00;97532.84;5021304;28;1902;-69
2023/12/25 03:31:52;;;;;;;;;;;7.40;99.90;;;6.82;100.00;97532.03;5019473;28;1427;-69
2023/12/25 03:34:20;;;;;;;;;;;7.40;99.90;;;6.84;100.00;97514.78;5020204;28;1227;-70
2023/12/25 03:36:47;;;;;;;;;;;7.50;99.90;;;6.83;100.00;97505.34;5021717;28;2113;-69
2023/12/25 03:39:14;;;;;;;;;;;7.40;99.90;;;6.96;100.00;97486.94;5022238;28;1656;-69
2023/12/25 03:41:40;;;;;;;;;;;7.50;99.90;;;6.90;100.00;97487.94;5019360;28;1414;-70
2023/12/25 03:44:07;;;;;;;;;;;7.50;99.90;;;6.78;100.00;97462.50;5016657;28;1452;-70
2023/12/25 03:46:35;;;;;;;;;;;7.40;99.90;;;6.79;100.00;97508.03;5021165;28;1389;-69
2023/12/25 03:49:01;;;;;;;;;;;7.40;99.90;;;6.82;100.00;97508.81;5023214;28;2005;-69
2023/12/25 03:51:28;;;;;;;;;;;7.40;99.90;;;6.84;100.00;97488.09;5018077;28;3456;-69
2023/12/25 03:53:55;;;;;;;;;;;7.40;99.90;;;6.85;100.00;97500.13;5018682;28;1316;-69
2023/12/25 03:56:23;;;;;;;;;;;7.30;99.90;;;6.85;100.00;97488.06;5020236;28;1393;-70
2023/12/25 03:58:50;;;;;;;;;;;7.40;99.90;;;6.94;100.00;97478.38;5035500;28;5379;-70
2023/12/25 04:01:17;;;;;;;;;;;7.40;99.90;;;6.80;100.00;97476.22;5019632;28;1519;-70
2023/12/25 04:03:44;;;;;;;;;;;7.50;99.90;;;6.80;100.00;97478.78;5007580;28;2223;-70
2023/12/25 04:06:21;;;;;;;;;;;7.40;99.90;;;6.72;100.00;97497.06;5019944;28;1591;-70
2023/12/25 04:08:48;;;;;;;;;;;7.40;99.90;;;6.74;100.00;97468.66;5020371;28;1983;-70
2023/12/25 04:11:22;;;;;;;;;;;7.40;99.90;;;6.64;100.00;97448.28;5020659;28;1419;-69
2023/12/25 04:13:53;;;;;;;;;;;7.40;99.90;;;6.63;100.00;97464.63;5036375;28;1430;-70
2023/12/25 04:16:21;;;;;;;;;;;7.40;99.90;;;6.69;100.00;97467.03;5030859;28;1525;-69
2023/12/25 04:18:48;;;;;;;;;;;7.40;99.90;;;6.62;100.00;97462.09;5034627;28;2046;-70
2023/12/25 04:21:27;;;;;;;;;;;7.30;99.90;;;6.64;100.00;97479.22;5019756;28;1438;-69
2023/12/25 04:23:55;;;;;;;;;;;7.30;99.90;;;6.67;100.00;97486.03;5030734;28;1469;-69
2023/12/25 04:26:23;;;;;;;;;;;7.30;99.90;;;6.66;100.00;97481.75;5000966;28;1759;-69
2023/12/25 04:28:50;;;;;;;;;;;7.30;99.90;;;6.68;100.00;97472.22;5018541;28;1899;-70
2023/12/25 04:31:17;;;;;;;;;;;7.40;99.90;;;6.68;100.00;97452.47;5017291;28;1564;-70
2023/12/25 04:33:44;;;;;;;;;;;7.30;99.90;;;6.67;100.00;97429.28;5032874;28;3378;-70
2023/12/25 04:36:12;;;;;;;;;;;7.40;99.90;;;6.68;100.00;97436.97;5016678;28;1395;-70
2023/12/25 04:38:39;;;;;;;;;;;7.30;99.90;;;6.72;100.00;97436.88;5035507;28;1365;-70
2023/12/25 04:41:06;;;;;;;;;;;7.30;99.90;;;6.78;100.00;97447.88;5018899;28;1316;-70
2023/12/25 04:43:33;;;;;;;;;;;7.40;99.90;;;6.81;100.00;97442.59;5017257;28;1335;-69
2023/12/25 04:46:02;;;;;;;;;;;7.40;99.90;;;6.72;100.00;97453.19;5013116;28;2254;-70
2023/12/25 04:48:29;;;;;;;;;;;7.40;99.90;;;6.73;100.00;97405.91;5018490;28;1988;-69
2023/12/25 04:50:59;;;;;;;;;;;7.40;99.90;;;6.74;100.00;97428.22;5016860;28;1308;-70
2023/12/25 04:53:26;;;;;;;;;;;7.30;99.90;;;6.75;100.00;97423.88;5048171;28;1949;-70
2023/12/25 04:55:52;;;;;;;;;;;7.30;99.90;;;6.73;100.00;97435.97;5018929;28;1329;-70
2023/12/25 04:58:20;;;;;;;;;;;7.30;99.90;;;6.75;100.00;97434.19;5014253;28;5293;-70
2023/12/25 05:00:47;;;;;;;;;;;7.30;99.90;;;6.75;100.00;97460.00;5020754;28;2065;-69
2023/12/25 05:03:13;;;;;;;;;;;7.30;99.90;;;6.72;100.00;97426.56;5021431;28;1485;-70
2023/12/25 05:05:40;;;;;;;;;;;7.30;99.90;;;6.65;100.00;97446.53;5015994;28;1384;-69
2023/12/25 05:08:07;;;;;;;;;;;7.30;99.90;;;6.62;100.00;97444.88;5021577;28;1391;-69
2023/12/25 05:10:34;;;;;;;;;;;7.30;99.90;;;6.63;100.00;97446.56;5018268;28;1903;-69
2023/12/25 05:13:01;;;;;;;;;;;7.20;99.90;;;6.62;100.00;97407.94;5048496;28;1802;-70
2023/12/25 05:15:28;;;;;;;;;;;7.20;99.90;;;6.66;100.00;97409.53;5013510;28;3443;-70
2023/12/25 05:17:55;;;;;;;;;;;7.30;99.90;;;6.70;100.00;97429.19;5020184;28;1436;-70
2023/12/25 05:20:23;;;;;;;;;;;7.30;99.90;;;6.62;100.00;97415.69;5015721;28;1380;-69
2023/12/25 05:22:50;;;;;;;;;;;7.30;99.90;;;6.63;100.00;97445.72;5017588;28;1387;-70
2023/12/25 05:25:16;;;;;;;;;;;7.30;99.90;;;6.64;100.00;97422.47;5018903;28;1364;-70
2023/12/25 05:27:43;;;;;;;;;;;7.30;99.90;;;6.72;100.00;97411.94;5016980;28;1156;-69
2023/12/25 05:30:10;;;;;;;;;;;7.30;99.90;;;6.67;100.00;97418.97;5020382;28;1987;-70
2023/12/25 05:32:38;;;;;;;;;;;7.30;99.90;;;6.64;100.00;97399.28;5019068;28;1488;-69
2023/12/25 05:35:05;;;;;;;;;;;7.30;99.90;;;6.64;100.00;97388.13;5021275;28;1129;-69
2023/12/25 05:37:32;;;;;;;;;;;7.30;99.90;;;6.73;100.00;97426.53;5017431;28;1371;-69
2023/12/25 05:40:00;;;;;;;;;;;7.20;99.90;;;6.68;100.00;97420.63;5019288;28;1217;-70
2023/12/25 05:42:26;;;;;;;;;;;7.30;99.90;;;6.73;100.00;97423.09;5017781;28;1793;-70
2023/12/25 05:44:53;;;;;;;;;;;7.30;99.90;;;6.66;100.00;97418.13;5018381;28;1069;-70
2023/12/25 05:47:20;;;;;;;;;;;7.30;99.90;;;6.74;100.00;97430.78;5021780;28;1482;-70
2023/12/25 05:49:47;;;;;;;;;;;7.30;99.90;;;6.73;100.00;97415.34;5020198;28;1902;-69
2023/12/25 05:52:14;;;;;;;;;;;7.30;99.90;;;6.72;100.00;97400.78;5017759;28;1401;-69
2023/12/25 05:54:42;;;;;;;;;;;7.30;99.90;;;6.63;100.00;97407.88;5024324;28;1113;-69
2023/12/25 05:57:09;;;;;;;;;;;7.30;99.90;;;6.63;100.00;97418.19;5022131;28;5408;-69
2023/12/25 05:59:37;;;;;;;;;;;7.30;99.90;;;6.59;100.00;97426.06;5023052;28;1430;-70
2023/12/25 06:02:05;;;;;;;;;;;7.20;99.90;;;6.62;100.00;97428.59;5023132;28;1372;-70
2023/12/25 06:04:31;;;;;;;;;;;7.30;99.90;;;6.59;100.00;97460.47;5019914;28;1316;-69
2023/12/25 06:07:01;;;;;;;;;;;7.30;99.90;;;6.62;100.00;97472.44;5019007;28;1368;-70
2023/12/25 06:09:28;;;;;;;;;;;7.30;99.90;;;6.60;100.00;97438.94;5019166;28;1988;-70
2023/12/25 06:11:55;;;;;;;;;;;7.20;99.90;;;6.60;100.00;97454.41;5019356;28;3336;-69
2023/12/25 06:14:22;;;;;;;;;;;7.30;99.90;;;6.57;100.00;97494.91;5021391;28;1240;-70
2023/12/25 06:16:49;;;;;;;;;;;7.30;99.90;;;6.58;100.00;97440.72;5017010;28;1364;-69
2023/12/25 06:19:16;;;;;;;;;;;7.30;99.90;;;6.62;100.00;97451.78;5025034;28;1323;-68
2023/12/25 06:21:43;;;;;;;;;;;7.30;99.90;;;6.58;100.00;97419.25;5020333;28;1367;-70
2023/12/25 06:24:10;;;;;;;;;;;7.30;99.90;;;6.58;100.00;97440.72;5021436;28;1478;-69
2023/12/25 06:26:37;;;;;;;;;;;7.30;99.90;;;6.55;100.00;97399.53;5021954;28;2039;-69
2023/12/25 06:29:04;;;;;;;;;;;7.20;99.90;;;6.65;100.00;97449.13;5020253;28;1910;-69
2023/12/25 06:31:31;;;;;;;;;;;7.20;99.90;;;6.61;100.00;97442.34;5019673;28;1460;-69
2023/12/25 06:33:57;;;;;;;;;;;7.20;99.90;;;6.65;100.00;97438.78;5015744;28;1488;-69
2023/12/25 06:36:24;;;;;;;;;;;7.20;99.90;;;6.64;100.00;97445.69;5020686;28;1547;-69
2023/12/25 06:38:51;;;;;;;;;;;7.20;99.90;;;6.58;100.00;97453.59;5022671;28;2160;-69
2023/12/25 06:41:18;;;;;;;;;;;7.20;99.90;;;6.63;100.00;97440.56;5017660;28;1337;-69
2023/12/25 06:43:45;;;;;;;;;;;7.20;99.90;;;6.56;100.00;97429.59;5021146;28;1450;-70
2023/12/25 06:46:12;;;;;;;;;;;7.20;99.90;;;6.63;100.00;97432.84;5020526;28;1415;-69
2023/12/25 06:48:39;;;;;;;;;;;7.20;99.90;;;6.69;100.00;97442.97;5020317;28;1427;-69
2023/12/25 06:51:08;;;;;;;;;;;7.30;99.90;;;6.68;100.00;97456.75;5020046;28;1989;-69
2023/12/25 06:53:35;;;;;;;;;;;7.20;99.90;;;6.66;100.00;97438.75;5032208;28;1458;-69
2023/12/25 06:56:02;;;;;;;;;;;7.20;99.90;;;6.60;100.00;97449.25;5018240;28;1368;-69
2023/12/25 06:58:29;;;;;;;;;;;7.30;99.90;;;6.55;100.00;97455.44;5015414;28;5622;-70
2023/12/25 07:00:56;;;;;;;;;;;7.30;99.90;;;6.56;100.00;97449.38;5018237;28;1395;-69
2023/12/25 07:03:23;;;;;;;;;;;7.30;99.90;;;6.55;100.00;97458.03;5015089;28;1354;-70
2023/12/25 07:05:49;;;;;;;;;;;7.20;99.90;;;6.58;100.00;97452.75;5021243;28;1391;-69
2023/12/25 07:08:17;;;;;;;;;;;7.20;99.90;;;6.59;100.00;97457.88;5018990;28;3112;-69
2023/12/25 07:10:46;;;;;;;;;;;7.20;99.90;;;6.55;100.00;97456.28;5016221;28;2017;-71
2023/12/25 07:13:13;;;;;;;;;;;7.20;99.90;;;6.63;100.00;97494.72;5016637;28;1867;-69
2023/12/25 07:15:40;;;;;;;;;;;7.20;99.90;;;6.62;100.00;97478.41;5016715;28;1396;-69
2023/12/25 07:18:07;;;;;;;;;;;7.20;99.90;;;6.60;100.00;97451.81;5017282;28;1396;-71
2023/12/25 07:20:34;;;;;;;;;;;7.20;99.90;;;6.63;100.00;97463.78;5019585;28;2187;-69
2023/12/25 07:23:01;;;;;;;;;;;7.30;99.90;;;6.64;100.00;97461.16;5017656;28;1496;-68
2023/12/25 07:25:28;;;;;;;;;;;7.30;99.90;;;6.63;100.00;97471.53;5053512;28;1928;-68
2023/12/25 07:27:55;;;;;;;;;;;7.30;99.90;;;6.66;100.00;97464.56;5021258;28;1391;-68
2023/12/25 07:30:22;;;;;;;;;;;7.20;99.90;;;6.68;100.00;97478.25;5021877;28;1980;-68
2023/12/25 07:32:49;;;;;;;;;;;7.30;99.90;;;6.64;100.00;97489.53;5016645;28;1503;-67
2023/12/25 07:35:16;;;;;;;;;;;7.30;99.90;;;6.65;100.00;97488.63;5019536;28;2357;-68
2023/12/25 07:37:43;;;;;;;;;;;7.30;99.90;;;6.65;100.00;97492.97;5019784;28;1440;-68
2023/12/25 07:40:10;;;;;;;;;;;7.30;99.90;;;6.65;100.00;97487.81;5018166;28;1369;-69
2023/12/25 07:42:37;;;;;;;;;;;7.30;99.90;;;6.72;100.00;97488.47;5035529;28;1323;-68
2023/12/25 07:45:05;;;;;;;;;;;7.20;99.90;;;6.62;100.00;97451.78;5007764;28;1429;-68
2023/12/25 07:47:32;;;;;;;;;;;7.30;99.90;;;6.64;100.00;97489.53;5022318;28;1425;-68
2023/12/25 07:49:58;;;;;;;;;;;7.30;99.90;;;6.69;100.00;97479.94;5018940;28;3169;-69
2023/12/25 07:52:25;;;;;;;;;;;7.30;99.90;;;6.74;100.00;97479.78;5015928;28;1463;-69
2023/12/25 07:54:54;;;;;;;;;;;7.30;99.90;;;6.70;100.00;97494.53;5014241;28;1776;-69
2023/12/25 07:57:21;;;;;;;;;;;7.30;99.90;;;6.67;100.00;97476.53;5018199;28;5103;-68
2023/12/25 07:59:51;;;;;;;;;;;7.30;99.90;;;6.69;100.00;97487.66;5020821;28;1431;-68
2023/12/25 08:02:18;;;;;;;;;;;7.30;99.90;;;6.67;100.00;97467.97;5016934;28;1411;-68
2023/12/25 08:04:45;;;;;;;;;;;7.30;99.90;;;6.71;100.00;97487.63;5016459;28;2037;-68
2023/12/25 08:07:11;;;;;;;;;;;7.20;99.90;;;6.72;100.00;97465.25;5023597;28;1105;-69
2023/12/25 08:09:38;;;;;;;;;;;7.30;99.90;;;6.66;100.00;97486.91;5018296;28;1902;-68
2023/12/25 08:12:05;;;;;;;;;;;7.30;99.90;;;6.69;100.00;97477.34;5021488;28;1382;-69
2023/12/25 08:14:32;;;;;;;;;;;7.30;99.90;;;6.70;100.00;97476.47;5016677;28;993;-67
2023/12/25 08:17:00;;;;;;;;;;;7.30;99.90;;;6.70;100.00;97453.25;5018438;28;2176;-68
2023/12/25 08:19:26;;;;;;;;;;;7.30;99.90;;;6.64;100.00;97453.44;5020632;28;1293;-68
2023/12/25 08:21:54;;;;;;;;;;;7.30;99.90;;;6.65;100.00;97456.84;5032587;28;1344;-69
2023/12/25 08:24:25;;;;;;;;;;;7.30;99.90;;;6.73;100.00;97472.97;5017242;28;1009;-69
2023/12/25 08:26:52;;;;;;;;;;;7.30;99.90;;;6.68;100.00;97462.78;5016417;28;1696;-68
2023/12/25 08:29:19;;;;;;;;;;;7.30;99.90;;;6.74;100.00;97460.91;5019712;28;1391;-68
2023/12/25 08:31:46;;;;;;;;;;;7.30;99.90;;;6.73;100.00;97485.00;5017120;28;1922;-69
2023/12/25 08:34:13;;;;;;;;;;;7.30;99.90;;;6.78;100.00;97475.41;5018420;28;1331;-69
2023/12/25 08:36:40;;;;;;;;;;;7.40;99.90;;;6.75;100.00;97472.91;5019475;28;1431;-69
2023/12/25 08:39:06;;;;;;;;;;;7.40;99.90;;;6.88;100.00;97484.56;5019978;28;1179;-69
2023/12/25 08:41:33;;;;;;;;;;;7.30;99.90;;;6.79;100.00;97483.09;5018764;28;1121;-68
2023/12/25 08:44:01;;;;;;;;;;;7.40;99.90;;;6.89;100.00;97481.09;5017756;28;1242;-68
2023/12/25 08:46:27;;;;;;;;;;;7.30;99.90;;;6.85;100.00;97507.88;5017785;28;3297;-68
2023/12/25 08:48:54;;;;;;;;;;;7.30;99.90;;;6.80;100.00;97476.22;5018936;28;1363;-68
2023/12/25 08:51:22;;;;;;;;;;;7.40;99.90;;;6.72;100.00;97485.91;5030091;28;1989;-68
2023/12/25 08:53:49;;;;;;;;;;;7.30;99.90;;;6.86;100.00;97489.75;5015825;28;1373;-68
2023/12/25 08:56:24;;;;;;;;;;;7.30;99.90;;;6.77;100.00;97496.91;5015330;28;1078;-68
2023/12/25 08:58:51;;;;;;;;;;;7.30;99.90;;;6.70;100.00;97483.34;5049896;28;1211;-67
2023/12/25 09:01:18;;;;;;;;;;;7.30;99.90;;;6.77;100.00;97510.66;5017185;28;2431;-68
2023/12/25 09:03:45;;;;;;;;;;;7.40;99.90;;;6.72;100.00;97507.38;5018963;28;1379;-68
2023/12/25 09:06:13;;;;;;;;;;;7.30;99.90;;;6.79;100.00;97508.88;5017142;28;1357;-68
2023/12/25 09:08:39;;;;;;;;;;;7.30;99.90;;;6.72;100.00;97478.16;5019314;28;1284;-67
2023/12/25 09:11:09;;;;;;;;;;;7.30;99.90;;;6.77;100.00;97509.81;5014095;28;1987;-68
2023/12/25 09:13:36;;;;;;;;;;;7.30;99.90;;;6.79;100.00;97497.72;5020304;28;2088;-68
2023/12/25 09:16:03;;;;;;;;;;;7.40;99.90;;;6.80;100.00;97492.53;5019406;28;1057;-69
2023/12/25 09:18:29;;;;;;;;;;;7.40;99.90;;;6.77;100.00;97507.25;5018984;28;1083;-68
2023/12/25 09:20:57;;;;;;;;;;;7.30;99.90;;;6.81;100.00;97514.00;5015912;28;1893;-69
2023/12/25 09:23:24;;;;;;;;;;;7.30;99.90;;;6.81;100.00;97514.00;5015201;28;1668;-69
2023/12/25 09:25:51;;;;;;;;;;;7.30;99.90;;;6.76;100.00;97526.19;5014789;28;1249;-68
2023/12/25 09:28:18;;;;;;;;;;;7.40;99.90;;;6.79;100.00;97513.19;5013514;28;1057;-68
2023/12/25 09:30:45;;;;;;;;;;;7.40;99.90;;;6.85;100.00;97541.41;5014962;28;1906;-68
2023/12/25 09:33:12;;;;;;;;;;;7.30;99.90;;;6.84;100.00;97516.50;5035644;28;1379;-68
2023/12/25 09:35:39;;;;;;;;;;;7.40;99.90;;;6.88;100.00;97541.31;5033712;28;1045;-69
2023/12/25 09:38:08;;;;;;;;;;;7.40;99.90;;;6.86;100.00;97533.63;5017171;28;1272;-69
2023/12/25 09:40:35;;;;;;;;;;;7.40;99.90;;;6.83;100.00;97522.56;5016181;28;1200;-68
2023/12/25 09:43:02;;;;;;;;;;;7.40;99.90;;;6.89;100.00;97515.47;5015718;28;3321;-67
2023/12/25 09:45:34;;;;;;;;;;;7.40;99.90;;;6.75;100.00;97537.38;5015188;28;1299;-68
2023/12/25 09:48:01;;;;;;;;;;;7.40;99.90;;;6.83;100.00;97519.97;5018806;28;1309;-69
2023/12/25 09:50:30;;;;;;;;;;;7.40;99.90;;;6.92;100.00;97545.50;5019129;28;1931;-68
2023/12/25 09:52:57;;;;;;;;;;;7.40;99.90;;;6.91;100.00;97528.31;5017440;28;1438;-68
2023/12/25 09:55:25;;;;;;;;;;;7.40;99.90;;;6.99;100.00;97541.84;5017943;28;2152;-69
2023/12/25 09:57:52;;;;;;;;;;;7.40;99.90;;;6.97;100.00;97520.41;5017540;28;5106;-68
2023/12/25 10:00:20;;;;;;;;;;;7.40;99.90;;;7.03;100.00;97547.78;5030316;28;1077;-68
2023/12/25 10:02:49;;;;;;;;;;;7.40;99.90;;;6.94;100.00;97532.56;5030055;28;1300;-70
2023/12/25 10:05:18;;;;;;;;;;;7.40;99.90;;;6.97;100.00;97522.16;5031659;28;1627;-70
2023/12/25 10:07:45;;;;;;;;;;;7.50;99.90;;;6.98;100.00;97531.56;5015934;28;1635;-71
2023/12/25 10:10:13;;;;;;;;;;;7.50;99.90;;;6.97;100.00;97514.41;5013723;28;2301;-71
2023/12/25 10:12:46;;;;;;;;;;;7.50;99.90;;;7.02;100.00;97541.75;5018183;28;1411;-70
2023/12/25 10:15:13;;;;;;;;;;;7.50;99.90;;;7.04;100.00;97518.50;5013188;28;1312;-71
2023/12/25 10:17:40;;;;;;;;;;;7.50;99.90;;;7.04;100.00;97559.78;5019892;28;1380;-70
2023/12/25 10:20:10;;;;;;;;;;;7.40;99.90;;;6.99;100.00;97533.28;5016184;28;1636;-69
2023/12/25 10:22:38;;;;;;;;;;;7.50;99.90;;;7.05;100.00;97544.28;5015154;28;1501;-69
2023/12/25 10:25:13;;;;;;;;;;;7.40;99.90;;;6.97;100.00;97523.00;5017982;28;3287;-70
2023/12/25 10:27:42;;;;;;;;;;;7.40;99.90;;;6.84;100.00;97550.91;5018606;28;1114;-70
2023/12/25 10:30:20;;;;;;;;;;;7.40;99.90;;;6.98;100.00;97542.75;5017771;28;1985;-70
2023/12/25 10:32:48;;;;;;;;;;;7.40;99.90;;;7.02;100.00;97557.25;5017329;28;1401;-70
2023/12/25 10:35:18;;;;;;;;;;;7.40;99.90;;;7.05;100.00;97577.00;5034199;28;1350;-70
2023/12/25 10:37:46;;;;;;;;;;;7.40;99.90;;;6.96;100.00;97536.78;5037003;28;1381;-70
2023/12/25 10:40:25;;;;;;;;;;;7.40;99.90;;;7.01;100.00;97545.25;5025367;28;1417;-70
2023/12/25 10:42:53;;;;;;;;;;;7.50;99.90;;;7.06;100.00;97538.22;5026714;28;1394;-70
2023/12/25 10:45:23;;;;;;;;;;;7.40;99.90;;;7.05;100.00;97513.31;5037942;28;1499;-70
2023/12/25 10:47:51;;;;;;;;;;;7.50;99.90;;;7.09;100.00;97548.47;5019740;28;1322;-70
2023/12/25 10:50:22;;;;;;;;;;;7.40;99.90;;;7.08;100.00;97523.53;5019223;28;2013;-70
2023/12/25 10:52:52;;;;;;;;;;;7.50;99.90;;;7.23;100.00;97532.56;5022391;28;1643;-70
2023/12/25 10:55:41;;;;;;;;;;;7.50;99.90;;;7.16;100.00;97513.00;5022484;28;1597;-70
2023/12/25 10:58:11;;;;;;;;;;;7.60;99.90;;;7.12;100.00;97545.78;5024694;28;1376;-70
2023/12/25 11:00:53;;;;;;;;;;;7.60;99.90;;;7.09;100.00;97525.22;5026024;28;1354;-70
2023/12/25 11:03:20;;;;;;;;;;;7.60;99.90;;;7.12;100.00;97537.19;5034833;28;1324;-70
2023/12/25 11:05:48;;;;;;;;;;;7.60;99.90;;;7.04;100.00;97539.97;5019300;28;1283;-70
2023/12/25 11:08:18;;;;;;;;;;;7.60;99.90;;;6.99;100.00;97547.03;5009494;28;1537;-70
2023/12/25 11:11:01;;;;;;;;;;;7.60;99.90;;;7.06;100.00;97521.88;5026410;28;2012;-70
2023/12/25 11:13:28;;;;;;;;;;;7.50;99.90;;;7.08;100.00;97531.28;5022121;28;1683;-70
2023/12/25 11:15:56;;;;;;;;;;;7.50;99.90;;;7.06;100.00;97545.09;5032550;28;1395;-70
2023/12/25 11:18:23;;;;;;;;;;;7.50;99.90;;;7.03;100.00;97533.16;5030646;28;1393;-70
2023/12/25 11:21:06;;;;;;;;;;;7.50;99.90;;;7.07;100.00;97524.44;5019227;28;3037;-70
2023/12/25 11:23:35;;;;;;;;;;;7.50;99.90;;;7.06;100.00;97540.78;5018599;28;1374;-70
2023/12/25 11:26:08;;;;;;;;;;;7.50;99.90;;;7.09;100.00;97575.97;5016626;28;1459;-70
2023/12/25 11:28:37;;;;;;;;;;;7.50;99.90;;;7.02;100.00;97546.09;5016289;28;1325;-70
2023/12/25 11:31:04;;;;;;;;;;;7.50;99.90;;;7.00;100.00;97525.50;5035342;28;1967;-69
2023/12/25 11:33:46;;;;;;;;;;;7.50;99.90;;;6.96;100.00;97529.06;5019973;28;1440;-70
2023/12/25 11:36:16;;;;;;;;;;;7.50;99.90;;;6.90;100.00;97532.63;5018302;28;1426;-70